sensor_id;sensor_type;location;lat;lon;timestamp;P1;durP1;ratioP1;P2;durP2;ratioP2
69087;SDS011;56190;43.562;5.036;2023-05-10T00:01:24;2.88;;;2.10;;
69087;SDS011;56190;43.562;5.036;2023-05-10T00:03:49;2.58;;;2.00;;
69087;SDS011;56190;43.562;5.036;2023-05-10T00:06:14;3.28;;;1.83;;
69087;SDS011;56190;43.562;5.036;2023-05-10T00:08:40;4.07;;;1.98;;
69087;SDS011;56190;43.562;5.036;2023-05-10T00:11:05;1.70;;;1.60;;
69087;SDS011;56190;43.562;5.036;2023-05-10T00:13:30;2.25;;;1.83;;
69087;SDS011;56190;43.562;5.036;2023-05-10T00:15:56;2.08;;;1.88;;
69087;SDS011;56190;43.562;5.036;2023-05-10T00:18:21;4.15;;;1.85;;
69087;SDS011;56190;43.562;5.036;2023-05-10T00:20:48;2.22;;;1.92;;
69087;SDS011;56190;43.562;5.036;2023-05-10T00:23:13;3.05;;;1.70;;
69087;SDS011;56190;43.562;5.036;2023-05-10T00:25:39;4.68;;;1.77;;
69087;SDS011;56190;43.562;5.036;2023-05-10T00:28:04;2.53;;;1.67;;
69087;SDS011;56190;43.562;5.036;2023-05-10T00:30:29;2.75;;;1.80;;
69087;SDS011;56190;43.562;5.036;2023-05-10T00:32:54;2.67;;;1.40;;
69087;SDS011;56190;43.562;5.036;2023-05-10T00:35:20;1.83;;;1.20;;
69087;SDS011;56190;43.562;5.036;2023-05-10T00:37:46;3.05;;;1.52;;
69087;SDS011;56190;43.562;5.036;2023-05-10T00:40:11;5.13;;;2.00;;
69087;SDS011;56190;43.562;5.036;2023-05-10T00:42:37;2.05;;;1.40;;
69087;SDS011;56190;43.562;5.036;2023-05-10T00:45:02;4.22;;;1.73;;
69087;SDS011;56190;43.562;5.036;2023-05-10T00:47:27;4.35;;;1.98;;
69087;SDS011;56190;43.562;5.036;2023-05-10T00:49:53;3.65;;;1.92;;
69087;SDS011;56190;43.562;5.036;2023-05-10T00:52:18;4.32;;;2.15;;
69087;SDS011;56190;43.562;5.036;2023-05-10T00:54:44;4.20;;;2.03;;
69087;SDS011;56190;43.562;5.036;2023-05-10T00:57:09;4.72;;;2.00;;
69087;SDS011;56190;43.562;5.036;2023-05-10T00:59:35;3.35;;;1.70;;
69087;SDS011;56190;43.562;5.036;2023-05-10T01:02:00;4.85;;;2.08;;
69087;SDS011;56190;43.562;5.036;2023-05-10T01:04:26;4.65;;;2.05;;
69087;SDS011;56190;43.562;5.036;2023-05-10T01:06:51;5.57;;;1.80;;
69087;SDS011;56190;43.562;5.036;2023-05-10T01:09:17;4.57;;;2.03;;
69087;SDS011;56190;43.562;5.036;2023-05-10T01:11:43;2.58;;;1.75;;
69087;SDS011;56190;43.562;5.036;2023-05-10T01:14:08;3.92;;;1.55;;
69087;SDS011;56190;43.562;5.036;2023-05-10T01:16:36;6.50;;;1.88;;
69087;SDS011;56190;43.562;5.036;2023-05-10T01:19:03;3.63;;;1.90;;
69087;SDS011;56190;43.562;5.036;2023-05-10T01:21:43;4.10;;;1.60;;
69087;SDS011;56190;43.562;5.036;2023-05-10T01:24:17;2.10;;;1.90;;
69087;SDS011;56190;43.562;5.036;2023-05-10T01:29:38;3.30;;;1.63;;
69087;SDS011;56190;43.562;5.036;2023-05-10T01:34:40;3.03;;;1.45;;
69087;SDS011;56190;43.562;5.036;2023-05-10T01:37:10;4.00;;;1.10;;
69087;SDS011;56190;43.562;5.036;2023-05-10T01:39:42;5.28;;;1.30;;
69087;SDS011;56190;43.562;5.036;2023-05-10T01:42:10;2.28;;;0.80;;
69087;SDS011;56190;43.562;5.036;2023-05-10T01:47:02;1.95;;;0.93;;
69087;SDS011;56190;43.562;5.036;2023-05-10T01:49:31;0.88;;;0.68;;
69087;SDS011;56190;43.562;5.036;2023-05-10T01:52:00;1.45;;;0.70;;
69087;SDS011;56190;43.562;5.036;2023-05-10T01:54:28;2.53;;;1.00;;
69087;SDS011;56190;43.562;5.036;2023-05-10T01:56:59;1.10;;;0.70;;
69087;SDS011;56190;43.562;5.036;2023-05-10T01:59:26;2.75;;;0.90;;
69087;SDS011;56190;43.562;5.036;2023-05-10T02:01:53;3.08;;;0.90;;
69087;SDS011;56190;43.562;5.036;2023-05-10T02:04:19;0.95;;;0.70;;
69087;SDS011;56190;43.562;5.036;2023-05-10T02:06:46;3.38;;;0.90;;
69087;SDS011;56190;43.562;5.036;2023-05-10T02:09:13;2.05;;;0.70;;
69087;SDS011;56190;43.562;5.036;2023-05-10T02:11:39;3.53;;;0.90;;
69087;SDS011;56190;43.562;5.036;2023-05-10T02:14:07;2.42;;;0.88;;
69087;SDS011;56190;43.562;5.036;2023-05-10T02:16:33;1.38;;;0.73;;
69087;SDS011;56190;43.562;5.036;2023-05-10T02:19:00;1.60;;;0.85;;
69087;SDS011;56190;43.562;5.036;2023-05-10T02:21:26;1.98;;;0.95;;
69087;SDS011;56190;43.562;5.036;2023-05-10T02:23:52;2.40;;;0.90;;
69087;SDS011;56190;43.562;5.036;2023-05-10T02:26:18;2.22;;;1.42;;
69087;SDS011;56190;43.562;5.036;2023-05-10T02:28:45;1.52;;;0.80;;
69087;SDS011;56190;43.562;5.036;2023-05-10T02:31:10;2.05;;;1.00;;
69087;SDS011;56190;43.562;5.036;2023-05-10T02:33:37;1.50;;;0.80;;
69087;SDS011;56190;43.562;5.036;2023-05-10T02:36:03;2.25;;;0.98;;
69087;SDS011;56190;43.562;5.036;2023-05-10T02:38:29;1.58;;;0.95;;
69087;SDS011;56190;43.562;5.036;2023-05-10T02:40:55;1.63;;;0.88;;
69087;SDS011;56190;43.562;5.036;2023-05-10T02:43:21;1.08;;;0.80;;
69087;SDS011;56190;43.562;5.036;2023-05-10T02:45:48;1.70;;;0.73;;
69087;SDS011;56190;43.562;5.036;2023-05-10T02:48:15;4.28;;;0.90;;
69087;SDS011;56190;43.562;5.036;2023-05-10T02:50:41;1.10;;;0.75;;
69087;SDS011;56190;43.562;5.036;2023-05-10T02:53:09;1.63;;;0.80;;
69087;SDS011;56190;43.562;5.036;2023-05-10T02:55:36;3.28;;;0.90;;
69087;SDS011;56190;43.562;5.036;2023-05-10T02:58:03;1.00;;;0.60;;
69087;SDS011;56190;43.562;5.036;2023-05-10T03:00:28;3.13;;;0.70;;
69087;SDS011;56190;43.562;5.036;2023-05-10T03:02:53;1.90;;;0.70;;
69087;SDS011;56190;43.562;5.036;2023-05-10T03:05:19;2.15;;;0.70;;
69087;SDS011;56190;43.562;5.036;2023-05-10T03:07:46;1.27;;;0.75;;
69087;SDS011;56190;43.562;5.036;2023-05-10T03:10:13;0.93;;;0.50;;
69087;SDS011;56190;43.562;5.036;2023-05-10T03:12:45;0.98;;;0.30;;
69087;SDS011;56190;43.562;5.036;2023-05-10T03:18:19;1.00;;;0.60;;
69087;SDS011;56190;43.562;5.036;2023-05-10T03:20:44;1.98;;;0.80;;
69087;SDS011;56190;43.562;5.036;2023-05-10T03:23:12;1.67;;;0.50;;
69087;SDS011;56190;43.562;5.036;2023-05-10T03:25:38;0.95;;;0.45;;
69087;SDS011;56190;43.562;5.036;2023-05-10T03:28:05;0.98;;;0.70;;
69087;SDS011;56190;43.562;5.036;2023-05-10T03:30:31;0.95;;;0.57;;
69087;SDS011;56190;43.562;5.036;2023-05-10T03:32:59;0.98;;;0.50;;
69087;SDS011;56190;43.562;5.036;2023-05-10T03:35:28;0.80;;;0.40;;
69087;SDS011;56190;43.562;5.036;2023-05-10T03:37:54;0.70;;;0.63;;
69087;SDS011;56190;43.562;5.036;2023-05-10T03:40:19;1.95;;;0.70;;
69087;SDS011;56190;43.562;5.036;2023-05-10T03:42:45;0.90;;;0.60;;
69087;SDS011;56190;43.562;5.036;2023-05-10T03:45:10;0.85;;;0.55;;
69087;SDS011;56190;43.562;5.036;2023-05-10T03:47:35;2.50;;;0.50;;
69087;SDS011;56190;43.562;5.036;2023-05-10T03:50:00;0.80;;;0.55;;
69087;SDS011;56190;43.562;5.036;2023-05-10T03:52:26;2.38;;;0.70;;
69087;SDS011;56190;43.562;5.036;2023-05-10T03:54:51;1.20;;;0.60;;
69087;SDS011;56190;43.562;5.036;2023-05-10T03:57:17;2.03;;;0.50;;
69087;SDS011;56190;43.562;5.036;2023-05-10T03:59:42;0.93;;;0.60;;
69087;SDS011;56190;43.562;5.036;2023-05-10T04:02:07;4.47;;;0.70;;
69087;SDS011;56190;43.562;5.036;2023-05-10T04:04:33;2.67;;;0.63;;
69087;SDS011;56190;43.562;5.036;2023-05-10T04:06:58;2.47;;;0.70;;
69087;SDS011;56190;43.562;5.036;2023-05-10T04:09:23;1.67;;;0.70;;
69087;SDS011;56190;43.562;5.036;2023-05-10T04:11:49;1.17;;;0.60;;
69087;SDS011;56190;43.562;5.036;2023-05-10T04:14:14;2.25;;;0.80;;
69087;SDS011;56190;43.562;5.036;2023-05-10T04:16:39;0.90;;;0.60;;
69087;SDS011;56190;43.562;5.036;2023-05-10T04:19:04;2.22;;;0.90;;
69087;SDS011;56190;43.562;5.036;2023-05-10T04:21:30;4.85;;;0.75;;
69087;SDS011;56190;43.562;5.036;2023-05-10T04:23:55;2.45;;;1.00;;
69087;SDS011;56190;43.562;5.036;2023-05-10T04:26:20;2.22;;;0.70;;
69087;SDS011;56190;43.562;5.036;2023-05-10T04:28:46;1.90;;;0.68;;
69087;SDS011;56190;43.562;5.036;2023-05-10T04:31:12;6.20;;;1.10;;
69087;SDS011;56190;43.562;5.036;2023-05-10T04:33:37;1.05;;;0.80;;
69087;SDS011;56190;43.562;5.036;2023-05-10T04:36:02;1.83;;;0.70;;
69087;SDS011;56190;43.562;5.036;2023-05-10T04:38:28;1.02;;;0.50;;
69087;SDS011;56190;43.562;5.036;2023-05-10T04:40:53;0.90;;;0.68;;
69087;SDS011;56190;43.562;5.036;2023-05-10T04:43:19;3.03;;;0.70;;
69087;SDS011;56190;43.562;5.036;2023-05-10T04:45:44;1.38;;;0.93;;
69087;SDS011;56190;43.562;5.036;2023-05-10T04:48:09;0.88;;;0.63;;
69087;SDS011;56190;43.562;5.036;2023-05-10T04:50:34;3.80;;;0.68;;
69087;SDS011;56190;43.562;5.036;2023-05-10T04:53:00;1.17;;;0.73;;
69087;SDS011;56190;43.562;5.036;2023-05-10T04:55:25;2.50;;;0.60;;
69087;SDS011;56190;43.562;5.036;2023-05-10T04:57:51;1.73;;;0.73;;
69087;SDS011;56190;43.562;5.036;2023-05-10T05:00:17;3.53;;;0.68;;
69087;SDS011;56190;43.562;5.036;2023-05-10T05:02:45;1.80;;;0.68;;
69087;SDS011;56190;43.562;5.036;2023-05-10T05:05:10;8.45;;;1.00;;
69087;SDS011;56190;43.562;5.036;2023-05-10T05:07:35;1.15;;;0.50;;
69087;SDS011;56190;43.562;5.036;2023-05-10T05:10:01;1.95;;;0.80;;
69087;SDS011;56190;43.562;5.036;2023-05-10T05:12:26;1.90;;;0.80;;
69087;SDS011;56190;43.562;5.036;2023-05-10T05:14:51;1.35;;;0.80;;
69087;SDS011;56190;43.562;5.036;2023-05-10T05:17:16;5.40;;;1.08;;
69087;SDS011;56190;43.562;5.036;2023-05-10T05:19:42;1.65;;;0.75;;
69087;SDS011;56190;43.562;5.036;2023-05-10T05:22:09;1.52;;;0.60;;
69087;SDS011;56190;43.562;5.036;2023-05-10T05:24:35;0.93;;;0.68;;
69087;SDS011;56190;43.562;5.036;2023-05-10T05:27:02;1.38;;;0.65;;
69087;SDS011;56190;43.562;5.036;2023-05-10T05:29:27;1.60;;;0.57;;
69087;SDS011;56190;43.562;5.036;2023-05-10T05:31:52;2.35;;;0.60;;
69087;SDS011;56190;43.562;5.036;2023-05-10T05:34:18;1.90;;;0.73;;
69087;SDS011;56190;43.562;5.036;2023-05-10T05:36:45;2.05;;;0.70;;
69087;SDS011;56190;43.562;5.036;2023-05-10T05:39:10;4.03;;;0.90;;
69087;SDS011;56190;43.562;5.036;2023-05-10T05:41:35;1.17;;;0.70;;
69087;SDS011;56190;43.562;5.036;2023-05-10T05:44:01;3.00;;;0.93;;
69087;SDS011;56190;43.562;5.036;2023-05-10T05:46:26;2.22;;;0.60;;
69087;SDS011;56190;43.562;5.036;2023-05-10T05:48:52;1.48;;;0.80;;
69087;SDS011;56190;43.562;5.036;2023-05-10T05:51:17;2.42;;;0.88;;
69087;SDS011;56190;43.562;5.036;2023-05-10T05:53:45;2.22;;;0.70;;
69087;SDS011;56190;43.562;5.036;2023-05-10T05:56:10;1.77;;;0.80;;
69087;SDS011;56190;43.562;5.036;2023-05-10T05:58:35;1.20;;;0.80;;
69087;SDS011;56190;43.562;5.036;2023-05-10T06:01:00;2.08;;;0.70;;
69087;SDS011;56190;43.562;5.036;2023-05-10T06:03:26;1.50;;;0.80;;
69087;SDS011;56190;43.562;5.036;2023-05-10T06:05:51;2.08;;;0.65;;
69087;SDS011;56190;43.562;5.036;2023-05-10T06:08:16;1.85;;;0.90;;
69087;SDS011;56190;43.562;5.036;2023-05-10T06:10:41;3.15;;;0.90;;
69087;SDS011;56190;43.562;5.036;2023-05-10T06:13:07;3.22;;;0.82;;
69087;SDS011;56190;43.562;5.036;2023-05-10T06:15:32;4.25;;;0.98;;
69087;SDS011;56190;43.562;5.036;2023-05-10T06:17:57;3.30;;;0.88;;
69087;SDS011;56190;43.562;5.036;2023-05-10T06:20:22;2.60;;;0.80;;
69087;SDS011;56190;43.562;5.036;2023-05-10T06:22:48;2.03;;;0.82;;
69087;SDS011;56190;43.562;5.036;2023-05-10T06:25:13;2.85;;;0.93;;
69087;SDS011;56190;43.562;5.036;2023-05-10T06:27:40;2.30;;;0.90;;
69087;SDS011;56190;43.562;5.036;2023-05-10T06:30:05;4.07;;;1.05;;
69087;SDS011;56190;43.562;5.036;2023-05-10T06:32:31;3.38;;;1.00;;
69087;SDS011;56190;43.562;5.036;2023-05-10T06:34:56;3.22;;;0.80;;
69087;SDS011;56190;43.562;5.036;2023-05-10T06:37:21;2.53;;;0.90;;
69087;SDS011;56190;43.562;5.036;2023-05-10T06:39:46;3.00;;;1.00;;
69087;SDS011;56190;43.562;5.036;2023-05-10T06:42:12;2.70;;;1.10;;
69087;SDS011;56190;43.562;5.036;2023-05-10T06:44:37;3.90;;;1.30;;
69087;SDS011;56190;43.562;5.036;2023-05-10T06:47:02;4.10;;;0.80;;
69087;SDS011;56190;43.562;5.036;2023-05-10T06:49:27;2.08;;;0.88;;
69087;SDS011;56190;43.562;5.036;2023-05-10T06:51:53;3.28;;;1.00;;
69087;SDS011;56190;43.562;5.036;2023-05-10T06:54:18;1.65;;;0.70;;
69087;SDS011;56190;43.562;5.036;2023-05-10T06:56:43;4.05;;;0.82;;
69087;SDS011;56190;43.562;5.036;2023-05-10T06:59:08;2.72;;;0.80;;
69087;SDS011;56190;43.562;5.036;2023-05-10T07:01:35;3.28;;;0.95;;
69087;SDS011;56190;43.562;5.036;2023-05-10T07:04:00;2.85;;;0.80;;
69087;SDS011;56190;43.562;5.036;2023-05-10T07:06:26;4.60;;;0.90;;
69087;SDS011;56190;43.562;5.036;2023-05-10T07:08:52;2.60;;;0.90;;
69087;SDS011;56190;43.562;5.036;2023-05-10T07:11:17;4.55;;;0.90;;
69087;SDS011;56190;43.562;5.036;2023-05-10T07:13:42;3.38;;;0.93;;
69087;SDS011;56190;43.562;5.036;2023-05-10T07:16:09;2.45;;;0.80;;
69087;SDS011;56190;43.562;5.036;2023-05-10T07:18:34;3.78;;;1.20;;
69087;SDS011;56190;43.562;5.036;2023-05-10T07:21:00;2.67;;;1.08;;
69087;SDS011;56190;43.562;5.036;2023-05-10T07:23:25;3.33;;;0.98;;
69087;SDS011;56190;43.562;5.036;2023-05-10T07:25:50;2.75;;;0.93;;
69087;SDS011;56190;43.562;5.036;2023-05-10T07:28:20;1.98;;;0.75;;
69087;SDS011;56190;43.562;5.036;2023-05-10T07:30:45;3.30;;;0.80;;
69087;SDS011;56190;43.562;5.036;2023-05-10T07:33:11;2.50;;;0.90;;
69087;SDS011;56190;43.562;5.036;2023-05-10T07:35:37;3.80;;;1.10;;
69087;SDS011;56190;43.562;5.036;2023-05-10T07:38:03;4.38;;;1.15;;
69087;SDS011;56190;43.562;5.036;2023-05-10T07:40:29;2.33;;;0.80;;
69087;SDS011;56190;43.562;5.036;2023-05-10T07:42:54;1.70;;;0.95;;
69087;SDS011;56190;43.562;5.036;2023-05-10T07:45:19;2.97;;;1.05;;
69087;SDS011;56190;43.562;5.036;2023-05-10T07:47:45;4.68;;;1.00;;
69087;SDS011;56190;43.562;5.036;2023-05-10T07:50:11;1.65;;;0.90;;
69087;SDS011;56190;43.562;5.036;2023-05-10T07:52:36;3.45;;;0.90;;
69087;SDS011;56190;43.562;5.036;2023-05-10T07:55:01;1.38;;;0.80;;
69087;SDS011;56190;43.562;5.036;2023-05-10T07:57:27;0.85;;;0.70;;
69087;SDS011;56190;43.562;5.036;2023-05-10T07:59:52;2.25;;;0.80;;
69087;SDS011;56190;43.562;5.036;2023-05-10T08:02:18;2.45;;;1.08;;
69087;SDS011;56190;43.562;5.036;2023-05-10T08:04:43;3.63;;;0.77;;
69087;SDS011;56190;43.562;5.036;2023-05-10T08:07:08;2.55;;;0.70;;
69087;SDS011;56190;43.562;5.036;2023-05-10T08:09:33;1.65;;;0.75;;
69087;SDS011;56190;43.562;5.036;2023-05-10T08:11:59;4.18;;;1.00;;
69087;SDS011;56190;43.562;5.036;2023-05-10T08:14:25;1.30;;;0.55;;
69087;SDS011;56190;43.562;5.036;2023-05-10T08:16:50;2.70;;;0.60;;
69087;SDS011;56190;43.562;5.036;2023-05-10T08:19:15;2.75;;;0.70;;
69087;SDS011;56190;43.562;5.036;2023-05-10T08:21:45;2.72;;;0.98;;
69087;SDS011;56190;43.562;5.036;2023-05-10T08:24:11;4.32;;;1.08;;
69087;SDS011;56190;43.562;5.036;2023-05-10T08:26:36;3.08;;;0.90;;
69087;SDS011;56190;43.562;5.036;2023-05-10T08:29:01;1.63;;;0.82;;
69087;SDS011;56190;43.562;5.036;2023-05-10T08:31:26;2.55;;;0.60;;
69087;SDS011;56190;43.562;5.036;2023-05-10T08:33:52;2.67;;;0.60;;
69087;SDS011;56190;43.562;5.036;2023-05-10T08:36:17;1.55;;;0.68;;
69087;SDS011;56190;43.562;5.036;2023-05-10T08:38:46;2.35;;;0.60;;
69087;SDS011;56190;43.562;5.036;2023-05-10T08:41:12;3.88;;;0.63;;
69087;SDS011;56190;43.562;5.036;2023-05-10T08:43:38;3.47;;;0.68;;
69087;SDS011;56190;43.562;5.036;2023-05-10T08:46:04;1.92;;;0.80;;
69087;SDS011;56190;43.562;5.036;2023-05-10T08:48:30;5.20;;;0.70;;
69087;SDS011;56190;43.562;5.036;2023-05-10T08:50:56;3.28;;;0.63;;
69087;SDS011;56190;43.562;5.036;2023-05-10T08:53:24;1.40;;;0.70;;
69087;SDS011;56190;43.562;5.036;2023-05-10T08:55:50;1.80;;;0.93;;
69087;SDS011;56190;43.562;5.036;2023-05-10T08:58:15;2.63;;;0.80;;
69087;SDS011;56190;43.562;5.036;2023-05-10T09:00:40;3.75;;;1.00;;
69087;SDS011;56190;43.562;5.036;2023-05-10T09:03:06;2.55;;;0.75;;
69087;SDS011;56190;43.562;5.036;2023-05-10T09:05:32;3.00;;;0.90;;
69087;SDS011;56190;43.562;5.036;2023-05-10T09:07:57;1.95;;;0.80;;
69087;SDS011;56190;43.562;5.036;2023-05-10T09:10:24;1.95;;;0.77;;
69087;SDS011;56190;43.562;5.036;2023-05-10T09:12:51;3.75;;;1.00;;
69087;SDS011;56190;43.562;5.036;2023-05-10T09:15:16;4.20;;;1.08;;
69087;SDS011;56190;43.562;5.036;2023-05-10T09:17:44;2.42;;;0.88;;
69087;SDS011;56190;43.562;5.036;2023-05-10T09:20:09;1.73;;;0.80;;
69087;SDS011;56190;43.562;5.036;2023-05-10T09:22:35;3.50;;;0.75;;
69087;SDS011;56190;43.562;5.036;2023-05-10T09:27:29;3.50;;;0.73;;
69087;SDS011;56190;43.562;5.036;2023-05-10T09:29:55;3.08;;;0.80;;
69087;SDS011;56190;43.562;5.036;2023-05-10T09:32:20;4.30;;;0.88;;
69087;SDS011;56190;43.562;5.036;2023-05-10T09:34:46;3.28;;;1.15;;
69087;SDS011;56190;43.562;5.036;2023-05-10T09:37:14;3.53;;;0.90;;
69087;SDS011;56190;43.562;5.036;2023-05-10T09:39:39;2.80;;;1.20;;
69087;SDS011;56190;43.562;5.036;2023-05-10T09:42:07;2.85;;;0.82;;
69087;SDS011;56190;43.562;5.036;2023-05-10T09:44:32;1.95;;;0.90;;
69087;SDS011;56190;43.562;5.036;2023-05-10T09:46:58;3.10;;;0.98;;
69087;SDS011;56190;43.562;5.036;2023-05-10T09:49:23;1.85;;;0.80;;
69087;SDS011;56190;43.562;5.036;2023-05-10T09:52:03;4.80;;;0.90;;
69087;SDS011;56190;43.562;5.036;2023-05-10T09:54:29;2.85;;;1.05;;
69087;SDS011;56190;43.562;5.036;2023-05-10T09:56:54;3.13;;;1.00;;
69087;SDS011;56190;43.562;5.036;2023-05-10T09:59:20;3.40;;;0.90;;
69087;SDS011;56190;43.562;5.036;2023-05-10T10:01:51;2.90;;;1.30;;
69087;SDS011;56190;43.562;5.036;2023-05-10T10:04:16;3.10;;;1.00;;
69087;SDS011;56190;43.562;5.036;2023-05-10T10:06:42;4.43;;;1.05;;
69087;SDS011;56190;43.562;5.036;2023-05-10T10:09:08;5.63;;;1.10;;
69087;SDS011;56190;43.562;5.036;2023-05-10T10:11:34;7.93;;;1.13;;
69087;SDS011;56190;43.562;5.036;2023-05-10T10:13:59;3.47;;;1.10;;
69087;SDS011;56190;43.562;5.036;2023-05-10T10:16:24;2.55;;;1.00;;
69087;SDS011;56190;43.562;5.036;2023-05-10T10:18:51;4.88;;;1.30;;
69087;SDS011;56190;43.562;5.036;2023-05-10T10:21:16;3.00;;;1.08;;
69087;SDS011;56190;43.562;5.036;2023-05-10T10:23:41;5.07;;;1.00;;
69087;SDS011;56190;43.562;5.036;2023-05-10T10:26:07;5.32;;;1.13;;
69087;SDS011;56190;43.562;5.036;2023-05-10T10:34:03;3.30;;;1.13;;
69087;SDS011;56190;43.562;5.036;2023-05-10T10:36:30;4.43;;;1.10;;
69087;SDS011;56190;43.562;5.036;2023-05-10T10:38:58;4.63;;;1.00;;
69087;SDS011;56190;43.562;5.036;2023-05-10T10:41:40;2.35;;;1.05;;
69087;SDS011;56190;43.562;5.036;2023-05-10T10:47:33;2.20;;;0.88;;
69087;SDS011;56190;43.562;5.036;2023-05-10T10:54:41;4.07;;;1.33;;
69087;SDS011;56190;43.562;5.036;2023-05-10T10:57:13;3.63;;;0.90;;
69087;SDS011;56190;43.562;5.036;2023-05-10T10:59:42;3.25;;;0.80;;
69087;SDS011;56190;43.562;5.036;2023-05-10T11:02:10;1.92;;;0.73;;
69087;SDS011;56190;43.562;5.036;2023-05-10T11:04:55;2.13;;;0.63;;
69087;SDS011;56190;43.562;5.036;2023-05-10T11:07:21;4.38;;;1.10;;
69087;SDS011;56190;43.562;5.036;2023-05-10T11:09:49;4.25;;;0.90;;
69087;SDS011;56190;43.562;5.036;2023-05-10T11:12:14;2.47;;;1.13;;
69087;SDS011;56190;43.562;5.036;2023-05-10T11:14:39;3.13;;;1.08;;
69087;SDS011;56190;43.562;5.036;2023-05-10T11:17:24;2.65;;;0.80;;
69087;SDS011;56190;43.562;5.036;2023-05-10T11:20:08;4.45;;;1.05;;
69087;SDS011;56190;43.562;5.036;2023-05-10T11:22:52;4.28;;;1.00;;
69087;SDS011;56190;43.562;5.036;2023-05-10T11:25:18;3.65;;;0.80;;
69087;SDS011;56190;43.562;5.036;2023-05-10T11:27:43;2.92;;;0.85;;
69087;SDS011;56190;43.562;5.036;2023-05-10T11:30:09;3.67;;;0.82;;
69087;SDS011;56190;43.562;5.036;2023-05-10T11:32:37;4.53;;;0.73;;
69087;SDS011;56190;43.562;5.036;2023-05-10T11:35:09;3.60;;;1.02;;
69087;SDS011;56190;43.562;5.036;2023-05-10T11:40:00;3.97;;;0.98;;
69087;SDS011;56190;43.562;5.036;2023-05-10T11:42:25;5.10;;;0.68;;
69087;SDS011;56190;43.562;5.036;2023-05-10T11:44:50;3.15;;;0.75;;
69087;SDS011;56190;43.562;5.036;2023-05-10T11:47:15;4.68;;;1.00;;
69087;SDS011;56190;43.562;5.036;2023-05-10T11:49:44;2.70;;;0.60;;
69087;SDS011;56190;43.562;5.036;2023-05-10T11:52:10;3.00;;;0.80;;
69087;SDS011;56190;43.562;5.036;2023-05-10T11:54:36;3.70;;;0.70;;
69087;SDS011;56190;43.562;5.036;2023-05-10T11:57:02;2.53;;;0.75;;
69087;SDS011;56190;43.562;5.036;2023-05-10T11:59:27;4.03;;;0.90;;
69087;SDS011;56190;43.562;5.036;2023-05-10T12:01:53;3.28;;;0.90;;
69087;SDS011;56190;43.562;5.036;2023-05-10T12:04:18;2.70;;;0.60;;
69087;SDS011;56190;43.562;5.036;2023-05-10T12:06:43;2.70;;;0.60;;
69087;SDS011;56190;43.562;5.036;2023-05-10T12:09:09;4.75;;;0.82;;
69087;SDS011;56190;43.562;5.036;2023-05-10T12:11:38;1.58;;;0.60;;
69087;SDS011;56190;43.562;5.036;2023-05-10T12:14:05;1.95;;;0.77;;
69087;SDS011;56190;43.562;5.036;2023-05-10T12:16:30;6.30;;;1.00;;
69087;SDS011;56190;43.562;5.036;2023-05-10T12:18:56;3.28;;;0.88;;
69087;SDS011;56190;43.562;5.036;2023-05-10T12:21:22;1.98;;;0.80;;
69087;SDS011;56190;43.562;5.036;2023-05-10T12:23:51;4.03;;;0.70;;
69087;SDS011;56190;43.562;5.036;2023-05-10T12:26:16;2.33;;;1.15;;
69087;SDS011;56190;43.562;5.036;2023-05-10T12:28:42;2.58;;;0.85;;
69087;SDS011;56190;43.562;5.036;2023-05-10T12:31:07;4.47;;;0.80;;
69087;SDS011;56190;43.562;5.036;2023-05-10T12:33:36;2.90;;;0.98;;
69087;SDS011;56190;43.562;5.036;2023-05-10T12:36:04;1.65;;;0.73;;
69087;SDS011;56190;43.562;5.036;2023-05-10T12:38:31;1.98;;;0.60;;
69087;SDS011;56190;43.562;5.036;2023-05-10T12:40:58;9.48;;;1.23;;
69087;SDS011;56190;43.562;5.036;2023-05-10T12:43:23;5.10;;;0.60;;
69087;SDS011;56190;43.562;5.036;2023-05-10T12:45:48;2.53;;;0.63;;
69087;SDS011;56190;43.562;5.036;2023-05-10T12:48:14;1.98;;;0.75;;
69087;SDS011;56190;43.562;5.036;2023-05-10T12:50:40;2.17;;;0.65;;
69087;SDS011;56190;43.562;5.036;2023-05-10T12:53:05;2.50;;;0.60;;
69087;SDS011;56190;43.562;5.036;2023-05-10T12:55:30;2.28;;;0.50;;
69087;SDS011;56190;43.562;5.036;2023-05-10T12:57:55;2.72;;;0.70;;
69087;SDS011;56190;43.562;5.036;2023-05-10T13:00:21;5.25;;;0.85;;
69087;SDS011;56190;43.562;5.036;2023-05-10T13:02:46;6.45;;;1.05;;
69087;SDS011;56190;43.562;5.036;2023-05-10T13:05:11;2.60;;;0.52;;
69087;SDS011;56190;43.562;5.036;2023-05-10T13:07:38;4.20;;;0.73;;
69087;SDS011;56190;43.562;5.036;2023-05-10T13:10:03;5.60;;;0.77;;
69087;SDS011;56190;43.562;5.036;2023-05-10T13:12:29;4.40;;;0.60;;
69087;SDS011;56190;43.562;5.036;2023-05-10T13:14:54;3.67;;;0.82;;
69087;SDS011;56190;43.562;5.036;2023-05-10T13:17:19;2.50;;;0.57;;
69087;SDS011;56190;43.562;5.036;2023-05-10T13:19:45;2.47;;;0.70;;
69087;SDS011;56190;43.562;5.036;2023-05-10T13:22:10;3.90;;;0.75;;
69087;SDS011;56190;43.562;5.036;2023-05-10T13:24:35;2.55;;;0.75;;
69087;SDS011;56190;43.562;5.036;2023-05-10T13:27:01;4.45;;;0.90;;
69087;SDS011;56190;43.562;5.036;2023-05-10T13:29:26;2.95;;;0.70;;
69087;SDS011;56190;43.562;5.036;2023-05-10T13:31:51;4.78;;;1.10;;
69087;SDS011;56190;43.562;5.036;2023-05-10T13:34:16;5.07;;;0.80;;
69087;SDS011;56190;43.562;5.036;2023-05-10T13:36:45;2.20;;;0.70;;
69087;SDS011;56190;43.562;5.036;2023-05-10T13:39:10;4.20;;;0.70;;
69087;SDS011;56190;43.562;5.036;2023-05-10T13:41:35;4.30;;;0.60;;
69087;SDS011;56190;43.562;5.036;2023-05-10T13:44:01;3.50;;;0.73;;
69087;SDS011;56190;43.562;5.036;2023-05-10T13:46:27;2.65;;;0.70;;
69087;SDS011;56190;43.562;5.036;2023-05-10T13:48:52;2.95;;;0.95;;
69087;SDS011;56190;43.562;5.036;2023-05-10T13:51:17;1.42;;;0.70;;
69087;SDS011;56190;43.562;5.036;2023-05-10T13:53:43;2.08;;;0.60;;
69087;SDS011;56190;43.562;5.036;2023-05-10T13:56:08;3.30;;;0.60;;
69087;SDS011;56190;43.562;5.036;2023-05-10T13:58:33;3.25;;;0.90;;
69087;SDS011;56190;43.562;5.036;2023-05-10T14:00:59;3.80;;;0.93;;
69087;SDS011;56190;43.562;5.036;2023-05-10T14:03:25;3.85;;;0.90;;
69087;SDS011;56190;43.562;5.036;2023-05-10T14:05:50;4.05;;;0.80;;
69087;SDS011;56190;43.562;5.036;2023-05-10T14:08:15;2.88;;;0.90;;
69087;SDS011;56190;43.562;5.036;2023-05-10T14:10:40;2.97;;;0.80;;
69087;SDS011;56190;43.562;5.036;2023-05-10T14:13:06;2.10;;;0.70;;
69087;SDS011;56190;43.562;5.036;2023-05-10T14:15:31;2.10;;;0.60;;
69087;SDS011;56190;43.562;5.036;2023-05-10T14:17:57;3.25;;;1.02;;
69087;SDS011;56190;43.562;5.036;2023-05-10T14:20:22;2.45;;;0.70;;
69087;SDS011;56190;43.562;5.036;2023-05-10T14:22:47;3.80;;;0.70;;
69087;SDS011;56190;43.562;5.036;2023-05-10T14:25:13;3.00;;;0.80;;
69087;SDS011;56190;43.562;5.036;2023-05-10T14:27:39;2.83;;;0.68;;
69087;SDS011;56190;43.562;5.036;2023-05-10T14:30:04;2.20;;;0.75;;
69087;SDS011;56190;43.562;5.036;2023-05-10T14:32:30;1.98;;;0.60;;
69087;SDS011;56190;43.562;5.036;2023-05-10T14:34:57;2.15;;;0.43;;
69087;SDS011;56190;43.562;5.036;2023-05-10T14:37:22;2.45;;;0.80;;
69087;SDS011;56190;43.562;5.036;2023-05-10T14:39:47;2.58;;;0.70;;
69087;SDS011;56190;43.562;5.036;2023-05-10T14:42:12;5.10;;;0.85;;
69087;SDS011;56190;43.562;5.036;2023-05-10T14:44:37;1.42;;;0.70;;
69087;SDS011;56190;43.562;5.036;2023-05-10T14:47:03;4.13;;;0.70;;
69087;SDS011;56190;43.562;5.036;2023-05-10T14:49:28;2.40;;;0.75;;
69087;SDS011;56190;43.562;5.036;2023-05-10T14:51:54;2.33;;;0.73;;
69087;SDS011;56190;43.562;5.036;2023-05-10T14:54:19;3.28;;;0.70;;
69087;SDS011;56190;43.562;5.036;2023-05-10T14:56:44;1.40;;;0.80;;
69087;SDS011;56190;43.562;5.036;2023-05-10T14:59:12;2.78;;;0.82;;
69087;SDS011;56190;43.562;5.036;2023-05-10T15:01:37;3.20;;;0.80;;
69087;SDS011;56190;43.562;5.036;2023-05-10T15:04:03;2.30;;;0.60;;
69087;SDS011;56190;43.562;5.036;2023-05-10T15:06:32;2.53;;;0.60;;
69087;SDS011;56190;43.562;5.036;2023-05-10T15:08:58;2.78;;;0.52;;
69087;SDS011;56190;43.562;5.036;2023-05-10T15:11:23;5.15;;;1.08;;